sensor_id;sensor_type;location;lat;lon;timestamp;pressure;altitude;pressure_sealevel;temperature;humidity
29733;BME280;16643;43.158;25.302;2022-10-13T00:00:43;98817.09;;;13.96;68.86
29733;BME280;16643;43.158;25.302;2022-10-13T00:03:10;98826.13;;;14.12;68.93
29733;BME280;16643;43.158;25.302;2022-10-13T00:05:40;98808.09;;;14.04;68.73
29733;BME280;16643;43.158;25.302;2022-10-13T00:08:06;98828.81;;;14.10;69.27
29733;BME280;16643;43.158;25.302;2022-10-13T00:10:36;98798.59;;;14.02;69.46
29733;BME280;16643;43.158;25.302;2022-10-13T00:13:01;98820.25;;;14.05;69.47
29733;BME280;16643;43.158;25.302;2022-10-13T00:15:27;98830.31;;;14.17;69.25
29733;BME280;16643;43.158;25.302;2022-10-13T00:17:53;98823.25;;;14.21;70.53
29733;BME280;16643;43.158;25.302;2022-10-13T00:20:19;98790.88;;;13.99;70.18
29733;BME280;16643;43.158;25.302;2022-10-13T00:22:44;98791.84;;;13.95;70.38
29733;BME280;16643;43.158;25.302;2022-10-13T00:25:10;98793.72;;;13.91;70.00
29733;BME280;16643;43.158;25.302;2022-10-13T00:27:36;98815.28;;;13.98;69.88
29733;BME280;16643;43.158;25.302;2022-10-13T00:30:02;98797.72;;;13.75;70.64
29733;BME280;16643;43.158;25.302;2022-10-13T00:32:28;98791.81;;;13.68;71.45
29733;BME280;16643;43.158;25.302;2022-10-13T00:34:53;98807.88;;;13.84;70.77
29733;BME280;16643;43.158;25.302;2022-10-13T00:37:19;98800.22;;;13.78;70.19
29733;BME280;16643;43.158;25.302;2022-10-13T00:39:44;98778.28;;;13.56;70.88
29733;BME280;16643;43.158;25.302;2022-10-13T00:42:11;98811.88;;;13.68;70.97
29733;BME280;16643;43.158;25.302;2022-10-13T00:45:02;98811.03;;;13.67;71.02
29733;BME280;16643;43.158;25.302;2022-10-13T00:47:41;98808.69;;;13.58;71.50
29733;BME280;16643;43.158;25.302;2022-10-13T00:50:13;98808.94;;;13.51;71.71
29733;BME280;16643;43.158;25.302;2022-10-13T00:52:40;98807.41;;;13.43;71.91
29733;BME280;16643;43.158;25.302;2022-10-13T00:55:08;98806.66;;;13.40;72.69
29733;BME280;16643;43.158;25.302;2022-10-13T00:57:38;98804.69;;;13.47;72.57
29733;BME280;16643;43.158;25.302;2022-10-13T01:00:05;98800.75;;;13.33;72.75
29733;BME280;16643;43.158;25.302;2022-10-13T01:02:34;98808.16;;;13.47;71.92
29733;BME280;16643;43.158;25.302;2022-10-13T01:05:01;98795.44;;;13.07;73.64
29733;BME280;16643;43.158;25.302;2022-10-13T01:07:28;98754.16;;;12.90;73.36
29733;BME280;16643;43.158;25.302;2022-10-13T01:09:54;98782.47;;;13.33;73.22
29733;BME280;16643;43.158;25.302;2022-10-13T01:12:59;98798.50;;;13.51;72.31
29733;BME280;16643;43.158;25.302;2022-10-13T01:15:33;98794.66;;;13.03;73.14
29733;BME280;16643;43.158;25.302;2022-10-13T01:31:44;98801.97;;;12.91;74.65
29733;BME280;16643;43.158;25.302;2022-10-13T01:34:20;98797.56;;;12.93;74.82
29733;BME280;16643;43.158;25.302;2022-10-13T01:43:07;98790.00;;;12.84;75.55
29733;BME280;16643;43.158;25.302;2022-10-13T01:45:39;98774.81;;;12.67;75.70
29733;BME280;16643;43.158;25.302;2022-10-13T01:48:08;98766.81;;;12.73;75.79
29733;BME280;16643;43.158;25.302;2022-10-13T01:50:35;98780.81;;;13.00;75.21
29733;BME280;16643;43.158;25.302;2022-10-13T01:53:03;98770.25;;;13.04;75.66
29733;BME280;16643;43.158;25.302;2022-10-13T01:55:29;98772.59;;;13.14;75.63
29733;BME280;16643;43.158;25.302;2022-10-13T01:57:56;98766.53;;;13.13;75.73
29733;BME280;16643;43.158;25.302;2022-10-13T02:00:22;98779.81;;;13.05;76.55
29733;BME280;16643;43.158;25.302;2022-10-13T02:08:14;98771.91;;;13.08;76.70
29733;BME280;16643;43.158;25.302;2022-10-13T02:10:58;98764.19;;;13.04;76.29
29733;BME280;16643;43.158;25.302;2022-10-13T02:13:27;98770.94;;;13.11;77.06
29733;BME280;16643;43.158;25.302;2022-10-13T02:15:56;98747.28;;;13.17;77.62
29733;BME280;16643;43.158;25.302;2022-10-13T02:18:30;98761.53;;;13.35;76.83
29733;BME280;16643;43.158;25.302;2022-10-13T02:20:57;98762.47;;;13.32;76.47
29733;BME280;16643;43.158;25.302;2022-10-13T02:23:24;98757.94;;;13.39;76.59
29733;BME280;16643;43.158;25.302;2022-10-13T02:25:51;98748.44;;;13.36;76.70
29733;BME280;16643;43.158;25.302;2022-10-13T02:28:17;98739.06;;;13.31;76.12
29733;BME280;16643;43.158;25.302;2022-10-13T02:30:45;98745.31;;;13.25;76.35
29733;BME280;16643;43.158;25.302;2022-10-13T02:33:11;98739.63;;;13.09;76.58
29733;BME280;16643;43.158;25.302;2022-10-13T02:35:37;98741.13;;;13.20;77.10
29733;BME280;16643;43.158;25.302;2022-10-13T02:38:03;98732.34;;;13.22;77.09
29733;BME280;16643;43.158;25.302;2022-10-13T02:40:29;98743.97;;;13.40;76.81
29733;BME280;16643;43.158;25.302;2022-10-13T02:42:55;98739.44;;;13.45;76.64
29733;BME280;16643;43.158;25.302;2022-10-13T02:45:21;98732.53;;;13.44;76.77
29733;BME280;16643;43.158;25.302;2022-10-13T02:47:47;98743.47;;;13.55;76.05
29733;BME280;16643;43.158;25.302;2022-10-13T02:50:13;98740.84;;;13.29;75.80
29733;BME280;16643;43.158;25.302;2022-10-13T02:52:38;98730.34;;;13.30;76.61
29733;BME280;16643;43.158;25.302;2022-10-13T02:55:05;98701.50;;;13.05;76.41
29733;BME280;16643;43.158;25.302;2022-10-13T02:57:30;98729.09;;;13.14;76.72
29733;BME280;16643;43.158;25.302;2022-10-13T02:59:56;98732.56;;;13.15;76.99
29733;BME280;16643;43.158;25.302;2022-10-13T03:02:22;98743.41;;;13.30;77.03
29733;BME280;16643;43.158;25.302;2022-10-13T03:04:48;98744.16;;;13.34;77.50
29733;BME280;16643;43.158;25.302;2022-10-13T03:07:14;98739.38;;;13.20;77.33
29733;BME280;16643;43.158;25.302;2022-10-13T03:09:40;98748.84;;;13.23;77.68
29733;BME280;16643;43.158;25.302;2022-10-13T03:12:06;98747.25;;;13.19;77.89
29733;BME280;16643;43.158;25.302;2022-10-13T03:14:31;98754.06;;;13.23;78.57
29733;BME280;16643;43.158;25.302;2022-10-13T03:16:57;98728.53;;;13.03;78.36
29733;BME280;16643;43.158;25.302;2022-10-13T03:19:23;98733.00;;;12.99;78.79
29733;BME280;16643;43.158;25.302;2022-10-13T03:21:48;98741.63;;;13.01;79.03
29733;BME280;16643;43.158;25.302;2022-10-13T03:24:14;98747.38;;;13.14;78.66
29733;BME280;16643;43.158;25.302;2022-10-13T03:26:40;98703.38;;;13.00;78.72
29733;BME280;16643;43.158;25.302;2022-10-13T03:29:06;98713.69;;;13.05;78.40
29733;BME280;16643;43.158;25.302;2022-10-13T03:31:31;98743.28;;;13.33;78.89
29733;BME280;16643;43.158;25.302;2022-10-13T03:33:57;98744.03;;;13.38;78.81
29733;BME280;16643;43.158;25.302;2022-10-13T03:36:23;98755.94;;;13.47;78.93
29733;BME280;16643;43.158;25.302;2022-10-13T03:38:48;98746.44;;;13.44;78.55
29733;BME280;16643;43.158;25.302;2022-10-13T03:41:16;98741.41;;;13.38;78.68
29733;BME280;16643;43.158;25.302;2022-10-13T03:43:43;98757.00;;;13.41;78.64
29733;BME280;16643;43.158;25.302;2022-10-13T03:46:12;98757.38;;;13.29;78.74
29733;BME280;16643;43.158;25.302;2022-10-13T03:48:39;98739.19;;;13.26;78.37
29733;BME280;16643;43.158;25.302;2022-10-13T03:51:10;98739.19;;;13.26;79.04
29733;BME280;16643;43.158;25.302;2022-10-13T03:53:36;98750.97;;;13.39;78.83
29733;BME280;16643;43.158;25.302;2022-10-13T03:56:03;98729.34;;;13.34;79.44
29733;BME280;16643;43.158;25.302;2022-10-13T03:58:29;98719.47;;;13.16;79.25
29733;BME280;16643;43.158;25.302;2022-10-13T04:00:56;98725.59;;;13.14;79.22
29733;BME280;16643;43.158;25.302;2022-10-13T04:03:26;98742.94;;;13.18;79.47
29733;BME280;16643;43.158;25.302;2022-10-13T04:05:52;98729.03;;;13.17;79.29
29733;BME280;16643;43.158;25.302;2022-10-13T04:08:18;98743.41;;;13.30;79.26
29733;BME280;16643;43.158;25.302;2022-10-13T04:10:44;98725.84;;;13.06;78.85
29733;BME280;16643;43.158;25.302;2022-10-13T04:13:10;98732.91;;;13.02;79.06
29733;BME280;16643;43.158;25.302;2022-10-13T04:15:39;98728.06;;;12.90;79.18
29733;BME280;16643;43.158;25.302;2022-10-13T04:18:06;98741.59;;;12.73;80.37
29733;BME280;16643;43.158;25.302;2022-10-13T04:20:37;98743.44;;;12.70;80.99
29733;BME280;16643;43.158;25.302;2022-10-13T04:23:03;98732.47;;;12.57;80.60
29733;BME280;16643;43.158;25.302;2022-10-13T04:25:29;98741.09;;;12.61;80.27
29733;BME280;16643;43.158;25.302;2022-10-13T04:27:55;98712.16;;;12.39;80.62
29733;BME280;16643;43.158;25.302;2022-10-13T04:30:20;98729.41;;;12.43;80.51
29733;BME280;16643;43.158;25.302;2022-10-13T04:32:46;98698.28;;;12.37;81.16
29733;BME280;16643;43.158;25.302;2022-10-13T04:35:12;98719.28;;;12.63;81.37
29733;BME280;16643;43.158;25.302;2022-10-13T04:37:37;98713.25;;;12.61;80.76
29733;BME280;16643;43.158;25.302;2022-10-13T04:40:03;98713.09;;;12.66;80.17
29733;BME280;16643;43.158;25.302;2022-10-13T04:42:29;98739.06;;;12.70;80.17
29733;BME280;16643;43.158;25.302;2022-10-13T04:44:55;98708.19;;;12.55;80.75
29733;BME280;16643;43.158;25.302;2022-10-13T04:47:20;98721.91;;;12.63;81.06
29733;BME280;16643;43.158;25.302;2022-10-13T04:49:46;98724.34;;;12.68;80.96
29733;BME280;16643;43.158;25.302;2022-10-13T04:52:12;98735.50;;;12.75;81.38
29733;BME280;16643;43.158;25.302;2022-10-13T04:54:37;98718.50;;;12.60;81.30
29733;BME280;16643;43.158;25.302;2022-10-13T04:57:03;98736.81;;;12.58;81.54
29733;BME280;16643;43.158;25.302;2022-10-13T04:59:29;98721.97;;;12.29;81.57
29733;BME280;16643;43.158;25.302;2022-10-13T05:01:55;98731.16;;;12.43;81.54
29733;BME280;16643;43.158;25.302;2022-10-13T05:04:20;98727.81;;;12.38;82.50
29733;BME280;16643;43.158;25.302;2022-10-13T05:06:46;98750.06;;;12.51;82.23
29733;BME280;16643;43.158;25.302;2022-10-13T05:09:15;98732.75;;;12.48;83.25
29733;BME280;16643;43.158;25.302;2022-10-13T05:11:41;98745.59;;;12.54;83.60
29733;BME280;16643;43.158;25.302;2022-10-13T05:14:06;98702.94;;;12.26;83.62
29733;BME280;16643;43.158;25.302;2022-10-13T05:16:32;98730.19;;;12.47;83.97
29733;BME280;16643;43.158;25.302;2022-10-13T05:18:58;98736.91;;;12.54;84.31
29733;BME280;16643;43.158;25.302;2022-10-13T05:21:26;98733.22;;;12.62;82.00
29733;BME280;16643;43.158;25.302;2022-10-13T05:23:53;98742.63;;;12.68;81.45
29733;BME280;16643;43.158;25.302;2022-10-13T05:26:25;98742.34;;;12.77;81.88
29733;BME280;16643;43.158;25.302;2022-10-13T05:28:57;98742.81;;;12.91;81.47
29733;BME280;16643;43.158;25.302;2022-10-13T05:31:25;98757.22;;;13.04;81.50
29733;BME280;16643;43.158;25.302;2022-10-13T05:33:51;98765.75;;;13.09;81.10
29733;BME280;16643;43.158;25.302;2022-10-13T05:36:26;98742.56;;;12.99;80.75
29733;BME280;16643;43.158;25.302;2022-10-13T05:38:54;98753.97;;;12.96;81.52
29733;BME280;16643;43.158;25.302;2022-10-13T05:41:21;98765.75;;;13.09;81.58
29733;BME280;16643;43.158;25.302;2022-10-13T05:43:47;98747.47;;;13.09;81.78
29733;BME280;16643;43.158;25.302;2022-10-13T05:46:13;98765.28;;;13.26;82.14
29733;BME280;16643;43.158;25.302;2022-10-13T05:48:39;98773.66;;;13.37;81.17
29733;BME280;16643;43.158;25.302;2022-10-13T05:51:39;98775.97;;;13.47;81.38
29733;BME280;16643;43.158;25.302;2022-10-13T05:54:30;98767.84;;;13.56;80.40
29733;BME280;16643;43.158;25.302;2022-10-13T05:57:15;74952.88;;;-142.82;80.40
29733;BME280;16643;43.158;25.302;2022-10-13T05:59:51;98767.16;;;13.77;78.83
29733;BME280;16643;43.158;25.302;2022-10-13T06:02:21;98788.59;;;13.88;78.54
29733;BME280;16643;43.158;25.302;2022-10-13T06:04:51;98772.84;;;13.90;78.68
29733;BME280;16643;43.158;25.302;2022-10-13T06:07:20;98783.72;;;14.04;79.34
29733;BME280;16643;43.158;25.302;2022-10-13T06:09:47;98779.94;;;14.12;77.88
29733;BME280;16643;43.158;25.302;2022-10-13T06:12:14;98787.84;;;14.36;78.74
29733;BME280;16643;43.158;25.302;2022-10-13T06:14:39;98763.50;;;14.34;78.18
29733;BME280;16643;43.158;25.302;2022-10-13T06:17:06;98787.13;;;14.57;77.58
29733;BME280;16643;43.158;25.302;2022-10-13T06:19:31;98761.19;;;14.51;77.35
29733;BME280;16643;43.158;25.302;2022-10-13T06:21:57;98786.84;;;14.66;76.75
29733;BME280;16643;43.158;25.302;2022-10-13T06:24:23;98781.66;;;14.65;76.56
29733;BME280;16643;43.158;25.302;2022-10-13T06:26:48;98772.88;;;14.66;76.15
29733;BME280;16643;43.158;25.302;2022-10-13T06:29:14;98789.06;;;14.77;75.92
29733;BME280;16643;43.158;25.302;2022-10-13T06:31:40;98784.34;;;14.86;75.72
29733;BME280;16643;43.158;25.302;2022-10-13T06:34:05;98751.31;;;14.82;75.04
29733;BME280;16643;43.158;25.302;2022-10-13T06:36:31;98795.84;;;15.06;74.90
29733;BME280;16643;43.158;25.302;2022-10-13T06:38:57;98785.00;;;15.15;74.85
29733;BME280;16643;43.158;25.302;2022-10-13T06:41:23;98790.66;;;15.27;73.88
29733;BME280;16643;43.158;25.302;2022-10-13T06:43:48;98783.53;;;15.31;73.65
29733;BME280;16643;43.158;25.302;2022-10-13T06:46:14;98770.03;;;15.18;73.03
29733;BME280;16643;43.158;25.302;2022-10-13T06:48:40;98781.06;;;15.26;72.69
29733;BME280;16643;43.158;25.302;2022-10-13T06:51:10;98774.88;;;15.29;72.18
29733;BME280;16643;43.158;25.302;2022-10-13T06:53:36;98790.06;;;15.43;72.51
29733;BME280;16643;43.158;25.302;2022-10-13T06:56:04;98763.38;;;15.33;72.54
29733;BME280;16643;43.158;25.302;2022-10-13T06:58:30;98786.03;;;15.57;70.86
29733;BME280;16643;43.158;25.302;2022-10-13T07:00:56;98757.22;;;15.57;70.07
29733;BME280;16643;43.158;25.302;2022-10-13T07:03:21;98776.94;;;15.66;68.83
29733;BME280;16643;43.158;25.302;2022-10-13T07:05:48;98784.19;;;15.81;69.54
29733;BME280;16643;43.158;25.302;2022-10-13T07:08:14;98782.19;;;15.88;69.36
29733;BME280;16643;43.158;25.302;2022-10-13T07:10:40;98797.63;;;16.16;69.75
29733;BME280;16643;43.158;25.302;2022-10-13T07:13:06;98786.78;;;16.25;69.48
29733;BME280;16643;43.158;25.302;2022-10-13T07:15:32;98758.03;;;16.22;68.70
29733;BME280;16643;43.158;25.302;2022-10-13T07:17:58;98751.41;;;16.13;68.27
29733;BME280;16643;43.158;25.302;2022-10-13T07:20:24;98794.44;;;16.50;69.72
29733;BME280;16643;43.158;25.302;2022-10-13T07:22:53;98773.19;;;16.56;67.79
29733;BME280;16643;43.158;25.302;2022-10-13T07:25:19;98745.69;;;16.44;69.32
29733;BME280;16643;43.158;25.302;2022-10-13T07:27:45;98798.31;;;16.82;67.28
29733;BME280;16643;43.158;25.302;2022-10-13T07:35:21;98781.69;;;17.01;66.30
29733;BME280;16643;43.158;25.302;2022-10-13T07:37:46;98773.56;;;17.06;65.94
29733;BME280;16643;43.158;25.302;2022-10-13T07:40:12;98787.00;;;17.19;65.92
29733;BME280;16643;43.158;25.302;2022-10-13T07:42:38;98787.28;;;17.31;65.51
29733;BME280;16643;43.158;25.302;2022-10-13T07:45:04;98789.00;;;17.51;65.23
29733;BME280;16643;43.158;25.302;2022-10-13T07:47:29;98790.88;;;17.68;64.11
29733;BME280;16643;43.158;25.302;2022-10-13T07:49:55;98785.28;;;17.74;64.32
29733;BME280;16643;43.158;25.302;2022-10-13T07:52:21;98771.63;;;17.85;64.09
29733;BME280;16643;43.158;25.302;2022-10-13T07:54:47;98772.19;;;17.91;62.97
29733;BME280;16643;43.158;25.302;2022-10-13T07:57:12;98739.19;;;17.84;63.15
29733;BME280;16643;43.158;25.302;2022-10-13T07:59:39;98792.78;;;18.18;58.98
29733;BME280;16643;43.158;25.302;2022-10-13T08:02:05;98779.16;;;18.09;59.98
29733;BME280;16643;43.158;25.302;2022-10-13T08:04:32;98782.66;;;18.10;62.42
29733;BME280;16643;43.158;25.302;2022-10-13T08:06:58;98774.16;;;18.22;62.45
29733;BME280;16643;43.158;25.302;2022-10-13T08:09:25;98770.38;;;18.28;62.04
29733;BME280;16643;43.158;25.302;2022-10-13T08:11:51;98775.44;;;18.31;61.16
29733;BME280;16643;43.158;25.302;2022-10-13T08:14:17;98746.38;;;18.17;61.75
29733;BME280;16643;43.158;25.302;2022-10-13T08:16:42;98753.88;;;18.24;60.92
29733;BME280;16643;43.158;25.302;2022-10-13T08:19:13;98741.41;;;18.28;59.63
29733;BME280;16643;43.158;25.302;2022-10-13T08:21:40;98777.50;;;18.60;59.27
29733;BME280;16643;43.158;25.302;2022-10-13T08:24:06;98779.25;;;18.77;57.71
29733;BME280;16643;43.158;25.302;2022-10-13T08:26:33;98767.84;;;18.76;57.04
29733;BME280;16643;43.158;25.302;2022-10-13T08:28:59;98772.16;;;18.95;55.92
29733;BME280;16643;43.158;25.302;2022-10-13T08:31:25;98770.88;;;19.02;56.76
29733;BME280;16643;43.158;25.302;2022-10-13T08:33:50;98756.00;;;19.01;57.35
29733;BME280;16643;43.158;25.302;2022-10-13T08:36:17;98782.38;;;19.01;54.20
29733;BME280;16643;43.158;25.302;2022-10-13T08:38:44;98715.16;;;18.76;56.50
29733;BME280;16643;43.158;25.302;2022-10-13T08:43:51;98780.78;;;18.81;52.64
29733;BME280;16643;43.158;25.302;2022-10-13T08:46:41;98779.81;;;18.99;53.54
29733;BME280;16643;43.158;25.302;2022-10-13T08:49:08;98760.13;;;19.06;54.52
29733;BME280;16643;43.158;25.302;2022-10-13T08:51:34;98763.69;;;19.21;53.97
29733;BME280;16643;43.158;25.302;2022-10-13T08:54:01;98772.06;;;18.46;53.39
29733;BME280;16643;43.158;25.302;2022-10-13T08:56:30;98771.06;;;18.14;53.12
29733;BME280;16643;43.158;25.302;2022-10-13T08:58:58;98776.69;;;18.24;54.57
29733;BME280;16643;43.158;25.302;2022-10-13T09:01:30;98755.25;;;18.31;52.67
29733;BME280;16643;43.158;25.302;2022-10-13T09:04:26;98781.94;;;18.41;53.49
29733;BME280;16643;43.158;25.302;2022-10-13T09:07:02;98781.91;;;18.60;57.14
29733;BME280;16643;43.158;25.302;2022-10-13T09:09:29;98772.63;;;18.85;57.77
29733;BME280;16643;43.158;25.302;2022-10-13T09:11:55;98771.88;;;18.83;55.66
29733;BME280;16643;43.158;25.302;2022-10-13T09:14:32;98773.94;;;18.94;53.85
29733;BME280;16643;43.158;25.302;2022-10-13T09:17:17;98781.03;;;18.76;53.96
29733;BME280;16643;43.158;25.302;2022-10-13T09:19:56;98769.75;;;18.90;53.03
29733;BME280;16643;43.158;25.302;2022-10-13T09:22:38;98767.38;;;19.18;53.42
29733;BME280;16643;43.158;25.302;2022-10-13T09:25:15;98757.28;;;18.61;53.51
29733;BME280;16643;43.158;25.302;2022-10-13T09:27:58;98746.47;;;18.82;53.98
29733;BME280;16643;43.158;25.302;2022-10-13T09:30:40;98767.97;;;18.91;52.53
29733;BME280;16643;43.158;25.302;2022-10-13T09:35:40;98756.69;;;19.20;53.02
29733;BME280;16643;43.158;25.302;2022-10-13T09:40:34;98745.69;;;19.29;50.81
29733;BME280;16643;43.158;25.302;2022-10-13T09:43:02;98758.00;;;19.44;50.87
29733;BME280;16643;43.158;25.302;2022-10-13T09:45:29;98744.56;;;19.33;50.70
29733;BME280;16643;43.158;25.302;2022-10-13T09:48:06;98741.59;;;18.75;51.29
29733;BME280;16643;43.158;25.302;2022-10-13T09:50:37;98740.84;;;18.73;52.53
29733;BME280;16643;43.158;25.302;2022-10-13T09:53:20;98747.31;;;18.83;52.34
29733;BME280;16643;43.158;25.302;2022-10-13T09:55:48;98740.97;;;18.52;52.13
29733;BME280;16643;43.158;25.302;2022-10-13T09:58:23;98754.38;;;18.82;51.55
29733;BME280;16643;43.158;25.302;2022-10-13T10:00:52;98741.84;;;18.86;51.73
29733;BME280;16643;43.158;25.302;2022-10-13T10:03:23;98701.91;;;18.78;51.67
29733;BME280;16643;43.158;25.302;2022-10-13T10:05:55;98732.81;;;19.07;50.08
29733;BME280;16643;43.158;25.302;2022-10-13T10:11:03;98729.50;;;19.35;48.74
29733;BME280;16643;43.158;25.302;2022-10-13T10:13:30;98726.78;;;19.37;48.38
29733;BME280;16643;43.158;25.302;2022-10-13T10:16:06;98729.25;;;19.71;47.74
29733;BME280;16643;43.158;25.302;2022-10-13T10:18:44;98727.22;;;20.06;48.39
29733;BME280;16643;43.158;25.302;2022-10-13T10:24:01;98730.38;;;20.27;45.12
29733;BME280;16643;43.158;25.302;2022-10-13T10:35:08;98705.72;;;20.12;44.91
29733;BME280;16643;43.158;25.302;2022-10-13T10:45:41;98678.81;;;20.36;48.40
29733;BME280;16643;43.158;25.302;2022-10-13T10:50:37;98676.69;;;20.42;44.59
29733;BME280;16643;43.158;25.302;2022-10-13T10:56:21;98682.69;;;20.44;43.78
29733;BME280;16643;43.158;25.302;2022-10-13T10:59:04;98692.38;;;20.29;44.65
29733;BME280;16643;43.158;25.302;2022-10-13T11:17:32;98649.63;;;21.08;43.04
29733;BME280;16643;43.158;25.302;2022-10-13T11:19:59;98640.84;;;21.22;42.31
29733;BME280;16643;43.158;25.302;2022-10-13T11:22:29;98625.84;;;21.35;41.85
29733;BME280;16643;43.158;25.302;2022-10-13T11:25:41;98630.59;;;21.69;42.50
29733;BME280;16643;43.158;25.302;2022-10-13T11:27:46;98629.88;;;21.41;40.51
29733;BME280;16643;43.158;25.302;2022-10-13T11:30:42;98624.44;;;21.29;40.10
29733;BME280;16643;43.158;25.302;2022-10-13T11:35:55;98610.72;;;21.10;42.07
29733;BME280;16643;43.158;25.302;2022-10-13T11:38:28;98606.63;;;21.19;41.81
29733;BME280;16643;43.158;25.302;2022-10-13T11:41:19;98629.13;;;21.38;42.24
29733;BME280;16643;43.158;25.302;2022-10-13T11:46:59;98622.75;;;21.28;40.25
29733;BME280;16643;43.158;25.302;2022-10-13T11:52:21;98606.59;;;20.78;41.54
29733;BME280;16643;43.158;25.302;2022-10-13T11:54:56;98597.91;;;20.90;42.36
29733;BME280;16643;43.158;25.302;2022-10-13T11:57:26;98597.44;;;20.83;41.27
29733;BME280;16643;43.158;25.302;2022-10-13T11:59:55;98596.88;;;20.78;39.52
29733;BME280;16643;43.158;25.302;2022-10-13T12:02:24;98611.63;;;20.82;41.33
29733;BME280;16643;43.158;25.302;2022-10-13T12:05:20;98604.56;;;21.10;40.54
29733;BME280;16643;43.158;25.302;2022-10-13T12:07:48;98586.34;;;21.19;40.83
29733;BME280;16643;43.158;25.302;2022-10-13T12:10:40;98600.78;;;21.41;40.17
29733;BME280;16643;43.158;25.302;2022-10-13T12:13:05;98590.19;;;21.14;38.25
29733;BME280;16643;43.158;25.302;2022-10-13T12:15:41;98591.84;;;21.29;39.07
29733;BME280;16643;43.158;25.302;2022-10-13T12:20:57;98574.56;;;21.23;37.52
29733;BME280;16643;43.158;25.302;2022-10-13T12:23:24;98582.09;;;21.02;38.67
29733;BME280;16643;43.158;25.302;2022-10-13T12:25:51;98566.78;;;20.81;38.93
29733;BME280;16643;43.158;25.302;2022-10-13T12:28:22;98561.97;;;20.87;39.06
29733;BME280;16643;43.158;25.302;2022-10-13T12:30:55;98533.34;;;20.80;38.35
29733;BME280;16643;43.158;25.302;2022-10-13T12:33:29;98579.50;;;21.15;39.14
29733;BME280;16643;43.158;25.302;2022-10-13T12:35:55;98548.38;;;21.06;38.37
29733;BME280;16643;43.158;25.302;2022-10-13T12:38:35;98581.78;;;20.80;37.68
29733;BME280;16643;43.158;25.302;2022-10-13T12:41:01;98555.06;;;20.85;39.72
29733;BME280;16643;43.158;25.302;2022-10-13T12:43:27;98581.09;;;21.32;38.78
29733;BME280;16643;43.158;25.302;2022-10-13T12:45:53;98553.81;;;21.17;36.24
29733;BME280;16643;43.158;25.302;2022-10-13T12:48:34;98578.28;;;20.80;38.24
29733;BME280;16643;43.158;25.302;2022-10-13T12:51:22;98579.78;;;20.98;39.02
29733;BME280;16643;43.158;25.302;2022-10-13T12:53:49;98567.94;;;21.03;38.90
29733;BME280;16643;43.158;25.302;2022-10-13T12:56:27;98570.81;;;21.13;37.64
29733;BME280;16643;43.158;25.302;2022-10-13T12:58:54;98557.91;;;20.82;37.81
29733;BME280;16643;43.158;25.302;2022-10-13T13:01:27;98567.28;;;21.00;37.96
29733;BME280;16643;43.158;25.302;2022-10-13T13:03:59;98572.19;;;21.06;37.08
29733;BME280;16643;43.158;25.302;2022-10-13T13:06:30;98550.16;;;20.79;37.95
29733;BME280;16643;43.158;25.302;2022-10-13T13:09:17;98562.53;;;20.78;38.12
29733;BME280;16643;43.158;25.302;2022-10-13T13:11:44;98563.53;;;20.63;37.24
29733;BME280;16643;43.158;25.302;2022-10-13T13:14:36;98568.03;;;20.75;39.44
29733;BME280;16643;43.158;25.302;2022-10-13T13:17:04;98560.44;;;20.83;38.53
29733;BME280;16643;43.158;25.302;2022-10-13T13:19:32;98550.53;;;20.87;38.62
29733;BME280;16643;43.158;25.302;2022-10-13T13:21:58;98549.28;;;20.92;37.69
29733;BME280;16643;43.158;25.302;2022-10-13T13:24:24;98535.09;;;20.93;37.62
29733;BME280;16643;43.158;25.302;2022-10-13T13:26:50;98544.75;;;20.94;37.08
29733;BME280;16643;43.158;25.302;2022-10-13T13:29:15;98514.47;;;20.86;37.09
29733;BME280;16643;43.158;25.302;2022-10-13T13:31:41;98533.38;;;20.65;36.72
29733;BME280;16643;43.158;25.302;2022-10-13T13:39:46;98513.34;;;20.35;36.50
29733;BME280;16643;43.158;25.302;2022-10-13T13:42:13;98536.66;;;20.28;36.35
29733;BME280;16643;43.158;25.302;2022-10-13T13:44:39;98535.91;;;20.26;37.01
29733;BME280;16643;43.158;25.302;2022-10-13T13:47:16;98510.25;;;20.14;37.26
29733;BME280;16643;43.158;25.302;2022-10-13T13:49:42;98519.31;;;20.10;37.16
29733;BME280;16643;43.158;25.302;2022-10-13T13:52:08;98503.63;;;20.21;35.96
29733;BME280;16643;43.158;25.302;2022-10-13T13:54:34;98511.09;;;20.28;36.03
29733;BME280;16643;43.158;25.302;2022-10-13T13:56:59;98521.78;;;20.41;35.78
29733;BME280;16643;43.158;25.302;2022-10-13T13:59:25;98512.22;;;20.53;35.48
29733;BME280;16643;43.158;25.302;2022-10-13T14:01:50;98513.84;;;20.68;37.65
29733;BME280;16643;43.158;25.302;2022-10-13T14:04:16;98525.09;;;20.72;35.73
29733;BME280;16643;43.158;25.302;2022-10-13T14:06:41;98511.53;;;20.63;36.11
29733;BME280;16643;43.158;25.302;2022-10-13T14:09:07;98511.97;;;20.70;35.08
29733;BME280;16643;43.158;25.302;2022-10-13T14:11:33;98519.66;;;20.87;33.94
29733;BME280;16643;43.158;25.302;2022-10-13T14:13:58;98527.59;;;20.87;34.30
29733;BME280;16643;43.158;25.302;2022-10-13T14:16:26;98545.53;;;20.82;33.37
29733;BME280;16643;43.158;25.302;2022-10-13T14:18:52;98518.50;;;20.64;33.25
29733;BME280;16643;43.158;25.302;2022-10-13T14:21:19;98540.34;;;20.54;33.84
29733;BME280;16643;43.158;25.302;2022-10-13T14:23:45;98519.28;;;20.24;34.13
29733;BME280;16643;43.158;25.302;2022-10-13T14:26:12;98519.56;;;20.34;34.25
29733;BME280;16643;43.158;25.302;2022-10-13T14:28:41;98534.97;;;20.41;34.23
29733;BME280;16643;43.158;25.302;2022-10-13T14:31:08;98501.13;;;20.19;33.48
29733;BME280;16643;43.158;25.302;2022-10-13T14:33:34;98514.50;;;20.30;34.25
29733;BME280;16643;43.158;25.302;2022-10-13T14:36:01;98496.13;;;20.15;34.12
29733;BME280;16643;43.158;25.302;2022-10-13T14:38:27;98517.53;;;20.39;34.74